sensor_id;sensor_type;location;lat;lon;timestamp;temperature;humidity
12957;DHT22;6543;48.836;10.092;2023-05-23T00:01:39;16.00;99.90
12957;DHT22;6543;48.836;10.092;2023-05-23T00:04:08;16.10;99.90
12957;DHT22;6543;48.836;10.092;2023-05-23T00:06:34;16.10;99.90
12957;DHT22;6543;48.836;10.092;2023-05-23T00:09:03;16.10;99.90
12957;DHT22;6543;48.836;10.092;2023-05-23T00:11:30;16.00;99.90
12957;DHT22;6543;48.836;10.092;2023-05-23T00:13:57;15.90;99.90
12957;DHT22;6543;48.836;10.092;2023-05-23T00:16:25;15.90;99.90
12957;DHT22;6543;48.836;10.092;2023-05-23T00:18:54;15.80;99.90
12957;DHT22;6543;48.836;10.092;2023-05-23T00:21:22;15.80;99.90
12957;DHT22;6543;48.836;10.092;2023-05-23T00:23:48;15.80;99.90
12957;DHT22;6543;48.836;10.092;2023-05-23T00:26:15;15.90;99.90
12957;DHT22;6543;48.836;10.092;2023-05-23T00:28:42;15.80;99.90
12957;DHT22;6543;48.836;10.092;2023-05-23T00:31:09;15.90;99.90
12957;DHT22;6543;48.836;10.092;2023-05-23T00:33:36;15.80;99.90
12957;DHT22;6543;48.836;10.092;2023-05-23T00:36:04;15.80;99.90
12957;DHT22;6543;48.836;10.092;2023-05-23T00:38:31;15.80;99.90
12957;DHT22;6543;48.836;10.092;2023-05-23T00:40:58;15.70;99.90
12957;DHT22;6543;48.836;10.092;2023-05-23T00:43:25;15.70;99.90
12957;DHT22;6543;48.836;10.092;2023-05-23T00:45:52;15.70;99.90
12957;DHT22;6543;48.836;10.092;2023-05-23T00:48:19;15.70;99.90
12957;DHT22;6543;48.836;10.092;2023-05-23T00:50:46;15.50;99.90
12957;DHT22;6543;48.836;10.092;2023-05-23T00:53:15;15.70;99.90
12957;DHT22;6543;48.836;10.092;2023-05-23T00:55:42;15.70;99.90
12957;DHT22;6543;48.836;10.092;2023-05-23T00:58:09;15.70;99.90
12957;DHT22;6543;48.836;10.092;2023-05-23T01:00:36;15.60;99.90
12957;DHT22;6543;48.836;10.092;2023-05-23T01:03:04;15.50;99.90
12957;DHT22;6543;48.836;10.092;2023-05-23T01:05:30;15.50;99.90
12957;DHT22;6543;48.836;10.092;2023-05-23T01:07:57;15.50;99.90
12957;DHT22;6543;48.836;10.092;2023-05-23T01:10:26;15.40;99.90
12957;DHT22;6543;48.836;10.092;2023-05-23T01:13:00;15.40;99.90
12957;DHT22;6543;48.836;10.092;2023-05-23T01:15:40;15.40;99.90
12957;DHT22;6543;48.836;10.092;2023-05-23T01:18:11;15.30;99.90
12957;DHT22;6543;48.836;10.092;2023-05-23T01:20:42;15.30;99.90
12957;DHT22;6543;48.836;10.092;2023-05-23T01:23:26;15.30;99.90
12957;DHT22;6543;48.836;10.092;2023-05-23T01:26:16;15.20;99.90
12957;DHT22;6543;48.836;10.092;2023-05-23T01:28:48;15.20;99.90
12957;DHT22;6543;48.836;10.092;2023-05-23T01:31:17;15.30;99.90
12957;DHT22;6543;48.836;10.092;2023-05-23T01:33:45;15.30;99.90
12957;DHT22;6543;48.836;10.092;2023-05-23T01:36:14;15.20;99.90
12957;DHT22;6543;48.836;10.092;2023-05-23T01:38:41;15.30;99.90
12957;DHT22;6543;48.836;10.092;2023-05-23T01:41:08;15.20;99.90
12957;DHT22;6543;48.836;10.092;2023-05-23T01:43:35;15.10;99.90
12957;DHT22;6543;48.836;10.092;2023-05-23T01:46:03;14.90;99.90
12957;DHT22;6543;48.836;10.092;2023-05-23T01:48:32;14.90;99.90
12957;DHT22;6543;48.836;10.092;2023-05-23T01:51:00;14.80;99.90
12957;DHT22;6543;48.836;10.092;2023-05-23T01:53:28;14.90;99.90
12957;DHT22;6543;48.836;10.092;2023-05-23T01:55:56;14.90;99.90
12957;DHT22;6543;48.836;10.092;2023-05-23T01:58:23;14.90;99.90
12957;DHT22;6543;48.836;10.092;2023-05-23T02:00:50;14.90;99.90
12957;DHT22;6543;48.836;10.092;2023-05-23T02:03:18;14.90;99.90
12957;DHT22;6543;48.836;10.092;2023-05-23T02:05:45;14.90;99.90
12957;DHT22;6543;48.836;10.092;2023-05-23T02:08:12;14.90;99.90
12957;DHT22;6543;48.836;10.092;2023-05-23T02:10:39;15.00;99.90
12957;DHT22;6543;48.836;10.092;2023-05-23T02:13:06;14.90;99.90
12957;DHT22;6543;48.836;10.092;2023-05-23T02:15:33;14.90;99.90
12957;DHT22;6543;48.836;10.092;2023-05-23T02:17:59;14.90;99.90
12957;DHT22;6543;48.836;10.092;2023-05-23T02:20:29;14.90;99.90
12957;DHT22;6543;48.836;10.092;2023-05-23T02:22:56;14.90;99.90
12957;DHT22;6543;48.836;10.092;2023-05-23T02:25:23;14.90;99.90
12957;DHT22;6543;48.836;10.092;2023-05-23T02:27:50;15.00;99.90
12957;DHT22;6543;48.836;10.092;2023-05-23T02:30:16;14.90;99.90
12957;DHT22;6543;48.836;10.092;2023-05-23T02:32:43;14.90;99.90
12957;DHT22;6543;48.836;10.092;2023-05-23T02:35:11;14.90;99.90
12957;DHT22;6543;48.836;10.092;2023-05-23T02:37:39;14.90;99.90
12957;DHT22;6543;48.836;10.092;2023-05-23T02:40:07;14.90;99.90
12957;DHT22;6543;48.836;10.092;2023-05-23T02:42:34;14.90;99.90
12957;DHT22;6543;48.836;10.092;2023-05-23T02:45:01;14.80;99.90
12957;DHT22;6543;48.836;10.092;2023-05-23T02:47:28;14.90;99.90
12957;DHT22;6543;48.836;10.092;2023-05-23T02:49:55;14.90;99.90
12957;DHT22;6543;48.836;10.092;2023-05-23T02:52:22;14.90;99.90
12957;DHT22;6543;48.836;10.092;2023-05-23T02:54:50;14.90;99.90
12957;DHT22;6543;48.836;10.092;2023-05-23T02:57:17;14.90;99.90
12957;DHT22;6543;48.836;10.092;2023-05-23T02:59:44;14.80;99.90
12957;DHT22;6543;48.836;10.092;2023-05-23T03:02:10;14.90;99.90
12957;DHT22;6543;48.836;10.092;2023-05-23T03:04:37;14.90;99.90
12957;DHT22;6543;48.836;10.092;2023-05-23T03:07:04;14.80;99.90
12957;DHT22;6543;48.836;10.092;2023-05-23T03:09:32;14.80;99.90
12957;DHT22;6543;48.836;10.092;2023-05-23T03:12:01;14.80;99.90
12957;DHT22;6543;48.836;10.092;2023-05-23T03:14:27;14.80;99.90
12957;DHT22;6543;48.836;10.092;2023-05-23T03:16:55;14.80;99.90
12957;DHT22;6543;48.836;10.092;2023-05-23T03:19:22;14.80;99.90
12957;DHT22;6543;48.836;10.092;2023-05-23T03:21:48;14.80;99.90
12957;DHT22;6543;48.836;10.092;2023-05-23T03:24:16;14.90;99.90
12957;DHT22;6543;48.836;10.092;2023-05-23T03:26:44;14.80;99.90
12957;DHT22;6543;48.836;10.092;2023-05-23T03:29:12;14.90;99.90
12957;DHT22;6543;48.836;10.092;2023-05-23T03:31:38;14.90;99.90
12957;DHT22;6543;48.836;10.092;2023-05-23T03:34:05;14.90;99.90
12957;DHT22;6543;48.836;10.092;2023-05-23T03:36:32;15.00;99.90
12957;DHT22;6543;48.836;10.092;2023-05-23T03:39:00;15.00;99.90
12957;DHT22;6543;48.836;10.092;2023-05-23T03:41:27;15.00;99.90
12957;DHT22;6543;48.836;10.092;2023-05-23T03:43:53;15.10;99.90
12957;DHT22;6543;48.836;10.092;2023-05-23T03:46:21;15.10;99.90
12957;DHT22;6543;48.836;10.092;2023-05-23T03:48:48;15.10;99.90
12957;DHT22;6543;48.836;10.092;2023-05-23T03:51:15;15.10;99.90
12957;DHT22;6543;48.836;10.092;2023-05-23T03:53:42;15.20;99.90
12957;DHT22;6543;48.836;10.092;2023-05-23T03:56:09;15.10;99.90
12957;DHT22;6543;48.836;10.092;2023-05-23T03:58:36;15.20;99.90
12957;DHT22;6543;48.836;10.092;2023-05-23T04:01:03;15.20;99.90
12957;DHT22;6543;48.836;10.092;2023-05-23T04:03:31;15.30;99.90
12957;DHT22;6543;48.836;10.092;2023-05-23T04:05:58;15.30;99.90
12957;DHT22;6543;48.836;10.092;2023-05-23T04:08:26;15.30;99.90
12957;DHT22;6543;48.836;10.092;2023-05-23T04:10:54;15.30;99.90
12957;DHT22;6543;48.836;10.092;2023-05-23T04:13:21;15.30;99.90
12957;DHT22;6543;48.836;10.092;2023-05-23T04:15:49;15.30;99.90
12957;DHT22;6543;48.836;10.092;2023-05-23T04:18:17;15.30;99.90
12957;DHT22;6543;48.836;10.092;2023-05-23T04:20:45;15.30;99.90
12957;DHT22;6543;48.836;10.092;2023-05-23T04:23:12;15.40;99.90
12957;DHT22;6543;48.836;10.092;2023-05-23T04:25:39;15.40;99.90
12957;DHT22;6543;48.836;10.092;2023-05-23T04:28:06;15.40;99.90
12957;DHT22;6543;48.836;10.092;2023-05-23T04:30:34;15.40;99.90
12957;DHT22;6543;48.836;10.092;2023-05-23T04:33:02;15.40;99.90
12957;DHT22;6543;48.836;10.092;2023-05-23T04:35:29;15.40;99.90
12957;DHT22;6543;48.836;10.092;2023-05-23T04:38:00;15.40;99.90
12957;DHT22;6543;48.836;10.092;2023-05-23T04:40:28;15.50;99.90
12957;DHT22;6543;48.836;10.092;2023-05-23T04:42:55;15.40;99.90
12957;DHT22;6543;48.836;10.092;2023-05-23T04:45:22;15.50;99.90
12957;DHT22;6543;48.836;10.092;2023-05-23T04:47:51;15.40;99.90
12957;DHT22;6543;48.836;10.092;2023-05-23T04:50:19;15.50;99.90
12957;DHT22;6543;48.836;10.092;2023-05-23T04:52:47;15.50;99.90
12957;DHT22;6543;48.836;10.092;2023-05-23T04:55:16;15.50;99.90
12957;DHT22;6543;48.836;10.092;2023-05-23T04:57:44;15.30;99.90
12957;DHT22;6543;48.836;10.092;2023-05-23T05:00:12;15.30;99.90
12957;DHT22;6543;48.836;10.092;2023-05-23T05:02:40;15.40;99.90
12957;DHT22;6543;48.836;10.092;2023-05-23T05:05:08;15.30;99.90
12957;DHT22;6543;48.836;10.092;2023-05-23T05:07:35;15.30;99.90
12957;DHT22;6543;48.836;10.092;2023-05-23T05:10:02;15.40;99.90
12957;DHT22;6543;48.836;10.092;2023-05-23T05:12:31;15.40;99.90
12957;DHT22;6543;48.836;10.092;2023-05-23T05:14:58;15.40;99.90
12957;DHT22;6543;48.836;10.092;2023-05-23T05:17:26;15.50;99.90
12957;DHT22;6543;48.836;10.092;2023-05-23T05:19:54;15.50;99.90
12957;DHT22;6543;48.836;10.092;2023-05-23T05:22:22;15.60;99.90
12957;DHT22;6543;48.836;10.092;2023-05-23T05:24:50;16.00;99.90
12957;DHT22;6543;48.836;10.092;2023-05-23T05:27:17;15.80;99.90
12957;DHT22;6543;48.836;10.092;2023-05-23T05:29:45;15.80;99.90
12957;DHT22;6543;48.836;10.092;2023-05-23T05:32:12;16.20;99.90
12957;DHT22;6543;48.836;10.092;2023-05-23T05:34:39;16.00;99.90
12957;DHT22;6543;48.836;10.092;2023-05-23T05:37:10;16.10;99.90
12957;DHT22;6543;48.836;10.092;2023-05-23T05:39:41;16.20;99.90
12957;DHT22;6543;48.836;10.092;2023-05-23T05:42:08;15.90;99.90
12957;DHT22;6543;48.836;10.092;2023-05-23T05:44:35;15.80;99.90
12957;DHT22;6543;48.836;10.092;2023-05-23T05:47:03;16.00;99.90
12957;DHT22;6543;48.836;10.092;2023-05-23T05:49:31;16.00;99.90
12957;DHT22;6543;48.836;10.092;2023-05-23T05:51:57;16.00;99.90
12957;DHT22;6543;48.836;10.092;2023-05-23T05:56:55;16.00;99.90
12957;DHT22;6543;48.836;10.092;2023-05-23T05:59:22;15.90;99.90
12957;DHT22;6543;48.836;10.092;2023-05-23T06:01:50;15.80;99.90
12957;DHT22;6543;48.836;10.092;2023-05-23T06:04:19;15.90;99.90
12957;DHT22;6543;48.836;10.092;2023-05-23T06:06:46;15.80;99.90
12957;DHT22;6543;48.836;10.092;2023-05-23T06:09:14;15.90;99.90
12957;DHT22;6543;48.836;10.092;2023-05-23T06:11:41;15.90;99.90
12957;DHT22;6543;48.836;10.092;2023-05-23T06:14:08;16.10;99.90
12957;DHT22;6543;48.836;10.092;2023-05-23T06:16:35;16.30;99.90
12957;DHT22;6543;48.836;10.092;2023-05-23T06:19:02;16.30;99.90
12957;DHT22;6543;48.836;10.092;2023-05-23T06:21:30;16.70;99.90
12957;DHT22;6543;48.836;10.092;2023-05-23T06:23:57;16.60;99.90
12957;DHT22;6543;48.836;10.092;2023-05-23T06:26:24;16.70;99.90
12957;DHT22;6543;48.836;10.092;2023-05-23T06:28:51;16.80;99.90
12957;DHT22;6543;48.836;10.092;2023-05-23T06:31:18;16.60;99.90
12957;DHT22;6543;48.836;10.092;2023-05-23T06:33:45;16.80;99.90
12957;DHT22;6543;48.836;10.092;2023-05-23T06:36:11;17.00;99.90
12957;DHT22;6543;48.836;10.092;2023-05-23T06:38:40;16.70;99.90
12957;DHT22;6543;48.836;10.092;2023-05-23T06:41:07;16.50;99.90
12957;DHT22;6543;48.836;10.092;2023-05-23T06:43:34;16.40;99.90
12957;DHT22;6543;48.836;10.092;2023-05-23T06:46:01;16.50;99.90
12957;DHT22;6543;48.836;10.092;2023-05-23T06:48:28;16.50;99.90
12957;DHT22;6543;48.836;10.092;2023-05-23T06:50:55;16.50;99.90
12957;DHT22;6543;48.836;10.092;2023-05-23T06:53:22;16.40;99.90
12957;DHT22;6543;48.836;10.092;2023-05-23T06:55:50;16.30;99.90
12957;DHT22;6543;48.836;10.092;2023-05-23T06:58:17;16.40;99.90
12957;DHT22;6543;48.836;10.092;2023-05-23T07:00:44;16.40;99.90
12957;DHT22;6543;48.836;10.092;2023-05-23T07:03:10;16.30;99.90
12957;DHT22;6543;48.836;10.092;2023-05-23T07:05:37;16.60;99.90
12957;DHT22;6543;48.836;10.092;2023-05-23T07:08:04;16.60;99.90
12957;DHT22;6543;48.836;10.092;2023-05-23T07:10:31;16.80;99.90
12957;DHT22;6543;48.836;10.092;2023-05-23T07:13:01;17.10;99.90
12957;DHT22;6543;48.836;10.092;2023-05-23T07:15:28;17.60;99.90
12957;DHT22;6543;48.836;10.092;2023-05-23T07:17:55;17.50;99.90
12957;DHT22;6543;48.836;10.092;2023-05-23T07:20:22;17.70;99.90
12957;DHT22;6543;48.836;10.092;2023-05-23T07:22:49;18.00;99.90
12957;DHT22;6543;48.836;10.092;2023-05-23T07:25:17;17.50;99.90
12957;DHT22;6543;48.836;10.092;2023-05-23T07:27:44;17.60;99.90
12957;DHT22;6543;48.836;10.092;2023-05-23T07:30:15;17.50;99.90
12957;DHT22;6543;48.836;10.092;2023-05-23T07:32:45;17.50;99.90
12957;DHT22;6543;48.836;10.092;2023-05-23T07:35:17;17.30;99.90
12957;DHT22;6543;48.836;10.092;2023-05-23T07:37:48;17.20;99.90
12957;DHT22;6543;48.836;10.092;2023-05-23T07:40:16;17.80;99.90
12957;DHT22;6543;48.836;10.092;2023-05-23T07:42:43;18.00;99.90
12957;DHT22;6543;48.836;10.092;2023-05-23T07:45:11;18.20;99.90
12957;DHT22;6543;48.836;10.092;2023-05-23T07:47:38;17.10;99.90
12957;DHT22;6543;48.836;10.092;2023-05-23T07:50:07;17.90;99.90
12957;DHT22;6543;48.836;10.092;2023-05-23T07:52:34;17.20;99.90
12957;DHT22;6543;48.836;10.092;2023-05-23T07:55:01;17.20;99.90
12957;DHT22;6543;48.836;10.092;2023-05-23T07:57:29;17.40;99.90
12957;DHT22;6543;48.836;10.092;2023-05-23T07:59:56;17.60;99.90
12957;DHT22;6543;48.836;10.092;2023-05-23T08:02:26;17.20;99.90
12957;DHT22;6543;48.836;10.092;2023-05-23T08:04:53;17.30;99.90
12957;DHT22;6543;48.836;10.092;2023-05-23T08:07:21;17.20;99.90
12957;DHT22;6543;48.836;10.092;2023-05-23T08:09:49;17.40;99.90
12957;DHT22;6543;48.836;10.092;2023-05-23T08:12:16;17.70;99.90
12957;DHT22;6543;48.836;10.092;2023-05-23T08:14:44;17.50;99.90
12957;DHT22;6543;48.836;10.092;2023-05-23T08:17:12;18.50;99.90
12957;DHT22;6543;48.836;10.092;2023-05-23T08:19:40;19.50;99.90
12957;DHT22;6543;48.836;10.092;2023-05-23T08:22:08;18.30;99.90
12957;DHT22;6543;48.836;10.092;2023-05-23T08:24:35;18.40;99.90
12957;DHT22;6543;48.836;10.092;2023-05-23T08:27:03;19.40;99.90
12957;DHT22;6543;48.836;10.092;2023-05-23T08:29:34;18.20;99.90
12957;DHT22;6543;48.836;10.092;2023-05-23T08:32:02;18.10;99.90
12957;DHT22;6543;48.836;10.092;2023-05-23T08:34:29;18.20;99.90
12957;DHT22;6543;48.836;10.092;2023-05-23T08:36:57;18.40;99.90
12957;DHT22;6543;48.836;10.092;2023-05-23T08:39:24;18.40;99.90
12957;DHT22;6543;48.836;10.092;2023-05-23T08:41:51;17.30;99.90
12957;DHT22;6543;48.836;10.092;2023-05-23T08:44:18;18.20;99.90
12957;DHT22;6543;48.836;10.092;2023-05-23T08:46:46;18.20;99.90
12957;DHT22;6543;48.836;10.092;2023-05-23T08:49:16;18.40;99.90
12957;DHT22;6543;48.836;10.092;2023-05-23T08:51:45;17.60;99.90
12957;DHT22;6543;48.836;10.092;2023-05-23T08:54:15;18.80;99.90
12957;DHT22;6543;48.836;10.092;2023-05-23T08:56:43;19.20;99.90
12957;DHT22;6543;48.836;10.092;2023-05-23T08:59:13;18.60;99.90
12957;DHT22;6543;48.836;10.092;2023-05-23T09:01:42;19.00;99.90
12957;DHT22;6543;48.836;10.092;2023-05-23T09:04:11;18.30;99.90
12957;DHT22;6543;48.836;10.092;2023-05-23T09:06:38;18.40;99.90
12957;DHT22;6543;48.836;10.092;2023-05-23T09:09:05;18.90;99.90
12957;DHT22;6543;48.836;10.092;2023-05-23T09:11:37;19.60;99.90
12957;DHT22;6543;48.836;10.092;2023-05-23T09:14:06;18.90;99.90
12957;DHT22;6543;48.836;10.092;2023-05-23T09:16:35;19.00;99.90
12957;DHT22;6543;48.836;10.092;2023-05-23T09:19:09;18.70;99.90
12957;DHT22;6543;48.836;10.092;2023-05-23T09:21:45;18.30;99.90
12957;DHT22;6543;48.836;10.092;2023-05-23T09:24:33;18.30;99.90
12957;DHT22;6543;48.836;10.092;2023-05-23T09:27:05;18.30;99.90
12957;DHT22;6543;48.836;10.092;2023-05-23T09:29:36;18.10;99.90
12957;DHT22;6543;48.836;10.092;2023-05-23T09:32:10;18.10;99.90
12957;DHT22;6543;48.836;10.092;2023-05-23T09:34:39;18.10;99.90
12957;DHT22;6543;48.836;10.092;2023-05-23T09:37:06;18.30;99.90
12957;DHT22;6543;48.836;10.092;2023-05-23T09:39:36;18.10;99.90
12957;DHT22;6543;48.836;10.092;2023-05-23T09:42:05;18.00;99.90
12957;DHT22;6543;48.836;10.092;2023-05-23T09:44:40;17.70;99.90
12957;DHT22;6543;48.836;10.092;2023-05-23T09:47:07;18.30;99.90
12957;DHT22;6543;48.836;10.092;2023-05-23T09:49:34;18.90;99.90
12957;DHT22;6543;48.836;10.092;2023-05-23T09:52:02;18.80;99.90
12957;DHT22;6543;48.836;10.092;2023-05-23T09:54:29;17.10;99.90
12957;DHT22;6543;48.836;10.092;2023-05-23T09:56:59;18.40;99.90
12957;DHT22;6543;48.836;10.092;2023-05-23T09:59:30;18.60;99.90
12957;DHT22;6543;48.836;10.092;2023-05-23T10:01:59;19.30;99.90
12957;DHT22;6543;48.836;10.092;2023-05-23T10:04:30;19.20;99.90
12957;DHT22;6543;48.836;10.092;2023-05-23T10:07:02;19.10;99.90
12957;DHT22;6543;48.836;10.092;2023-05-23T10:09:32;18.80;99.90
12957;DHT22;6543;48.836;10.092;2023-05-23T10:15:14;18.70;99.90
12957;DHT22;6543;48.836;10.092;2023-05-23T10:17:56;18.40;99.90
12957;DHT22;6543;48.836;10.092;2023-05-23T10:20:29;18.60;99.90
12957;DHT22;6543;48.836;10.092;2023-05-23T10:22:59;18.70;99.90
12957;DHT22;6543;48.836;10.092;2023-05-23T10:25:27;19.00;99.90
12957;DHT22;6543;48.836;10.092;2023-05-23T10:27:56;19.00;99.90
12957;DHT22;6543;48.836;10.092;2023-05-23T10:30:28;18.60;99.90
12957;DHT22;6543;48.836;10.092;2023-05-23T10:32:55;19.10;99.90
12957;DHT22;6543;48.836;10.092;2023-05-23T10:35:31;18.80;99.90
12957;DHT22;6543;48.836;10.092;2023-05-23T10:38:03;19.50;99.90
12957;DHT22;6543;48.836;10.092;2023-05-23T10:40:49;19.20;99.90
12957;DHT22;6543;48.836;10.092;2023-05-23T10:43:26;19.70;99.90
12957;DHT22;6543;48.836;10.092;2023-05-23T10:45:56;18.50;99.90
12957;DHT22;6543;48.836;10.092;2023-05-23T10:48:32;18.80;99.90
12957;DHT22;6543;48.836;10.092;2023-05-23T10:51:05;18.90;99.90
12957;DHT22;6543;48.836;10.092;2023-05-23T10:53:36;19.00;99.90
12957;DHT22;6543;48.836;10.092;2023-05-23T10:56:07;18.50;99.90
12957;DHT22;6543;48.836;10.092;2023-05-23T10:58:35;18.70;99.90
12957;DHT22;6543;48.836;10.092;2023-05-23T11:01:08;18.50;99.90
12957;DHT22;6543;48.836;10.092;2023-05-23T11:03:37;18.70;99.90
12957;DHT22;6543;48.836;10.092;2023-05-23T11:06:28;18.80;99.90
12957;DHT22;6543;48.836;10.092;2023-05-23T11:09:02;19.00;99.90
12957;DHT22;6543;48.836;10.092;2023-05-23T11:11:53;19.00;99.90
12957;DHT22;6543;48.836;10.092;2023-05-23T11:14:31;19.20;99.90
12957;DHT22;6543;48.836;10.092;2023-05-23T11:17:14;18.90;99.90
12957;DHT22;6543;48.836;10.092;2023-05-23T11:19:55;18.80;99.90
12957;DHT22;6543;48.836;10.092;2023-05-23T11:22:28;19.00;99.90
12957;DHT22;6543;48.836;10.092;2023-05-23T11:25:06;18.70;99.90
12957;DHT22;6543;48.836;10.092;2023-05-23T11:27:34;19.10;99.90
12957;DHT22;6543;48.836;10.092;2023-05-23T11:30:06;19.10;99.90
12957;DHT22;6543;48.836;10.092;2023-05-23T11:32:36;19.10;99.90
12957;DHT22;6543;48.836;10.092;2023-05-23T11:35:05;19.10;99.90
12957;DHT22;6543;48.836;10.092;2023-05-23T11:37:33;18.90;99.90
12957;DHT22;6543;48.836;10.092;2023-05-23T11:40:26;18.60;99.90
12957;DHT22;6543;48.836;10.092;2023-05-23T11:42:56;18.40;99.90
12957;DHT22;6543;48.836;10.092;2023-05-23T11:45:24;18.70;99.90
12957;DHT22;6543;48.836;10.092;2023-05-23T11:47:57;19.00;99.90
12957;DHT22;6543;48.836;10.092;2023-05-23T11:50:27;19.00;99.90
12957;DHT22;6543;48.836;10.092;2023-05-23T11:52:54;19.30;99.90
12957;DHT22;6543;48.836;10.092;2023-05-23T11:55:22;19.20;99.90
12957;DHT22;6543;48.836;10.092;2023-05-23T11:57:49;19.00;99.90
12957;DHT22;6543;48.836;10.092;2023-05-23T12:00:17;18.80;99.90
12957;DHT22;6543;48.836;10.092;2023-05-23T12:02:45;18.60;99.90
12957;DHT22;6543;48.836;10.092;2023-05-23T12:05:15;18.90;99.90
12957;DHT22;6543;48.836;10.092;2023-05-23T12:07:44;19.10;99.90
12957;DHT22;6543;48.836;10.092;2023-05-23T12:10:13;18.80;99.90
12957;DHT22;6543;48.836;10.092;2023-05-23T12:12:41;18.20;99.90
12957;DHT22;6543;48.836;10.092;2023-05-23T12:15:10;18.60;99.90
12957;DHT22;6543;48.836;10.092;2023-05-23T12:17:38;18.50;99.90
12957;DHT22;6543;48.836;10.092;2023-05-23T12:20:06;19.30;99.90
12957;DHT22;6543;48.836;10.092;2023-05-23T12:22:34;18.60;99.90
12957;DHT22;6543;48.836;10.092;2023-05-23T12:25:01;19.00;99.90
12957;DHT22;6543;48.836;10.092;2023-05-23T12:27:33;19.00;99.90
12957;DHT22;6543;48.836;10.092;2023-05-23T12:30:04;18.90;99.90
12957;DHT22;6543;48.836;10.092;2023-05-23T12:32:32;18.90;99.90
12957;DHT22;6543;48.836;10.092;2023-05-23T12:35:00;19.50;99.90
12957;DHT22;6543;48.836;10.092;2023-05-23T12:37:27;19.20;99.90
12957;DHT22;6543;48.836;10.092;2023-05-23T12:39:57;19.30;99.90
12957;DHT22;6543;48.836;10.092;2023-05-23T12:42:48;19.20;99.90
12957;DHT22;6543;48.836;10.092;2023-05-23T12:45:16;18.90;99.90
12957;DHT22;6543;48.836;10.092;2023-05-23T12:47:44;19.90;99.90
12957;DHT22;6543;48.836;10.092;2023-05-23T12:50:13;19.30;99.90
12957;DHT22;6543;48.836;10.092;2023-05-23T12:52:40;18.50;99.90
12957;DHT22;6543;48.836;10.092;2023-05-23T12:55:09;19.40;99.90
12957;DHT22;6543;48.836;10.092;2023-05-23T12:57:36;19.20;99.90
12957;DHT22;6543;48.836;10.092;2023-05-23T13:00:04;19.10;99.90
12957;DHT22;6543;48.836;10.092;2023-05-23T13:02:31;19.10;99.90
12957;DHT22;6543;48.836;10.092;2023-05-23T13:04:58;18.90;99.90
12957;DHT22;6543;48.836;10.092;2023-05-23T13:07:25;18.80;99.90
12957;DHT22;6543;48.836;10.092;2023-05-23T13:09:52;19.00;99.90
12957;DHT22;6543;48.836;10.092;2023-05-23T13:12:20;19.40;99.90
12957;DHT22;6543;48.836;10.092;2023-05-23T13:14:53;19.60;99.90
12957;DHT22;6543;48.836;10.092;2023-05-23T13:17:23;19.60;99.90
12957;DHT22;6543;48.836;10.092;2023-05-23T13:19:52;19.10;99.90
12957;DHT22;6543;48.836;10.092;2023-05-23T13:22:22;18.60;99.90
12957;DHT22;6543;48.836;10.092;2023-05-23T13:24:49;19.40;99.90
12957;DHT22;6543;48.836;10.092;2023-05-23T13:27:17;19.30;99.90
12957;DHT22;6543;48.836;10.092;2023-05-23T13:29:45;19.40;99.90
12957;DHT22;6543;48.836;10.092;2023-05-23T13:32:15;18.90;99.90
12957;DHT22;6543;48.836;10.092;2023-05-23T13:34:44;18.80;99.90
12957;DHT22;6543;48.836;10.092;2023-05-23T13:37:11;18.80;99.90
12957;DHT22;6543;48.836;10.092;2023-05-23T13:39:40;18.70;99.90
12957;DHT22;6543;48.836;10.092;2023-05-23T13:42:10;18.90;99.90
12957;DHT22;6543;48.836;10.092;2023-05-23T13:44:38;19.00;99.90
12957;DHT22;6543;48.836;10.092;2023-05-23T13:47:16;19.30;99.90
12957;DHT22;6543;48.836;10.092;2023-05-23T13:49:43;19.20;99.90
12957;DHT22;6543;48.836;10.092;2023-05-23T13:52:11;18.90;99.90
12957;DHT22;6543;48.836;10.092;2023-05-23T13:54:38;18.90;99.90
12957;DHT22;6543;48.836;10.092;2023-05-23T13:57:06;18.80;99.90
12957;DHT22;6543;48.836;10.092;2023-05-23T13:59:33;18.70;99.90
12957;DHT22;6543;48.836;10.092;2023-05-23T14:02:00;18.80;99.90
12957;DHT22;6543;48.836;10.092;2023-05-23T14:04:31;18.80;99.90
12957;DHT22;6543;48.836;10.092;2023-05-23T14:06:59;18.90;99.90
12957;DHT22;6543;48.836;10.092;2023-05-23T14:09:30;19.10;99.90
12957;DHT22;6543;48.836;10.092;2023-05-23T14:11:59;18.90;99.90
12957;DHT22;6543;48.836;10.092;2023-05-23T14:14:28;18.70;99.90
12957;DHT22;6543;48.836;10.092;2023-05-23T14:16:59;18.90;99.90
12957;DHT22;6543;48.836;10.092;2023-05-23T14:19:27;18.90;99.90
12957;DHT22;6543;48.836;10.092;2023-05-23T14:22:02;18.50;99.90
12957;DHT22;6543;48.836;10.092;2023-05-23T14:24:45;18.70;99.90
12957;DHT22;6543;48.836;10.092;2023-05-23T14:27:14;18.60;99.90
12957;DHT22;6543;48.836;10.092;2023-05-23T14:29:42;19.40;99.90
12957;DHT22;6543;48.836;10.092;2023-05-23T14:32:15;18.60;99.90
12957;DHT22;6543;48.836;10.092;2023-05-23T14:34:53;18.50;99.90
12957;DHT22;6543;48.836;10.092;2023-05-23T14:37:35;17.80;99.90
12957;DHT22;6543;48.836;10.092;2023-05-23T14:40:03;18.20;99.90
12957;DHT22;6543;48.836;10.092;2023-05-23T14:42:30;19.00;99.90
12957;DHT22;6543;48.836;10.092;2023-05-23T14:44:58;18.90;99.90
12957;DHT22;6543;48.836;10.092;2023-05-23T14:47:25;18.90;99.90
12957;DHT22;6543;48.836;10.092;2023-05-23T14:49:53;19.00;99.90
12957;DHT22;6543;48.836;10.092;2023-05-23T14:52:20;19.10;99.90
12957;DHT22;6543;48.836;10.092;2023-05-23T14:54:49;18.80;99.90
12957;DHT22;6543;48.836;10.092;2023-05-23T14:57:16;18.70;99.90
12957;DHT22;6543;48.836;10.092;2023-05-23T15:00:06;20.30;99.90
12957;DHT22;6543;48.836;10.092;2023-05-23T15:03:07;19.40;99.90
12957;DHT22;6543;48.836;10.092;2023-05-23T15:05:56;19.00;99.90
12957;DHT22;6543;48.836;10.092;2023-05-23T15:08:55;18.80;99.90
12957;DHT22;6543;48.836;10.092;2023-05-23T15:11:23;19.20;99.90
12957;DHT22;6543;48.836;10.092;2023-05-23T15:13:51;19.00;99.90
12957;DHT22;6543;48.836;10.092;2023-05-23T15:16:18;19.00;99.90
12957;DHT22;6543;48.836;10.092;2023-05-23T15:18:46;19.30;99.90
12957;DHT22;6543;48.836;10.092;2023-05-23T15:21:13;19.50;99.90
12957;DHT22;6543;48.836;10.092;2023-05-23T15:23:40;19.90;99.90
12957;DHT22;6543;48.836;10.092;2023-05-23T15:26:07;20.20;99.90
12957;DHT22;6543;48.836;10.092;2023-05-23T15:28:35;20.30;99.90
12957;DHT22;6543;48.836;10.092;2023-05-23T15:31:02;20.60;99.90
12957;DHT22;6543;48.836;10.092;2023-05-23T15:33:29;21.00;99.90
12957;DHT22;6543;48.836;10.092;2023-05-23T15:35:55;21.50;99.90
12957;DHT22;6543;48.836;10.092;2023-05-23T15:38:23;20.90;99.90
12957;DHT22;6543;48.836;10.092;2023-05-23T15:40:50;19.40;99.90
12957;DHT22;6543;48.836;10.092;2023-05-23T15:43:19;19.10;99.90
12957;DHT22;6543;48.836;10.092;2023-05-23T15:45:49;18.80;99.90
12957;DHT22;6543;48.836;10.092;2023-05-23T15:48:17;18.60;99.90